createdAt,value
2018-08-04T00:02:10.981Z,88.10
2018-08-04T00:04:39.455Z,88.30
2018-08-04T00:09:36.177Z,90.50
2018-08-04T00:12:04.819Z,90.50
2018-08-04T00:14:34.258Z,89.40
2018-08-04T00:17:02.914Z,89.50
2018-08-04T00:19:31.560Z,89.50
2018-08-04T00:22:00.040Z,89.60
2018-08-04T00:24:28.590Z,90.30
2018-08-04T00:26:57.503Z,90.50
2018-08-04T00:29:26.405Z,91.00
2018-08-04T00:31:54.946Z,90.90
2018-08-04T00:34:23.556Z,90.90
2018-08-04T00:36:52.248Z,91.90
2018-08-04T00:39:20.676Z,92.70
2018-08-04T00:41:49.295Z,92.70
2018-08-04T00:44:17.793Z,92.40
2018-08-04T00:46:46.405Z,92.30
2018-08-04T00:49:15.216Z,92.00
2018-08-04T00:51:43.704Z,92.00
2018-08-04T00:54:12.172Z,92.10
2018-08-04T00:56:41.053Z,92.00
2018-08-04T00:59:09.563Z,91.80
2018-08-04T01:01:38.092Z,91.60
2018-08-04T01:04:06.715Z,91.30
2018-08-04T01:06:35.431Z,90.00
2018-08-04T01:09:05.144Z,85.80
2018-08-04T01:11:34.300Z,84.30
2018-08-04T01:14:02.908Z,87.90
2018-08-04T01:16:31.428Z,85.80
2018-08-04T01:19:00.293Z,84.30
2018-08-04T01:21:28.773Z,86.70
2018-08-04T01:23:57.288Z,85.40
2018-08-04T01:26:25.811Z,83.20
2018-08-04T01:28:54.293Z,82.10
2018-08-04T01:31:22.785Z,81.70
2018-08-04T01:33:52.147Z,82.00
2018-08-04T01:36:23.847Z,81.90
2018-08-04T01:38:52.345Z,81.90
2018-08-04T01:41:20.797Z,81.80
2018-08-04T01:43:49.672Z,82.30
2018-08-04T01:46:18.284Z,82.60
2018-08-04T01:48:46.929Z,82.20
2018-08-04T01:51:15.456Z,82.00
2018-08-04T01:53:44.106Z,82.10
2018-08-04T01:56:12.544Z,82.50
2018-08-04T01:58:41.004Z,82.60
2018-08-04T02:01:09.468Z,82.90
2018-08-04T02:03:37.909Z,83.30
2018-08-04T02:06:06.392Z,85.60
2018-08-04T02:08:34.843Z,86.10
2018-08-04T02:11:03.384Z,86.50
2018-08-04T02:13:31.838Z,86.50
2018-08-04T02:16:00.325Z,86.40
2018-08-04T02:18:28.948Z,86.30
2018-08-04T02:20:57.396Z,88.40
2018-08-04T02:23:25.857Z,88.60
2018-08-04T02:25:54.279Z,88.20
2018-08-04T02:28:22.777Z,88.20
2018-08-04T02:30:51.216Z,88.20
2018-08-04T02:35:47.792Z,87.20
2018-08-04T02:38:16.288Z,89.70
2018-08-04T02:40:44.890Z,90.40
2018-08-04T02:43:13.722Z,90.20
2018-08-04T02:45:42.160Z,90.10
2018-08-04T02:48:11.131Z,89.90
2018-08-04T02:50:39.740Z,90.60
2018-08-04T02:53:08.814Z,90.10
2018-08-04T02:55:37.252Z,89.70
2018-08-04T02:58:05.825Z,89.80
2018-08-04T03:00:34.260Z,90.50
2018-08-04T03:03:02.690Z,90.90
2018-08-04T03:05:31.217Z,91.00
2018-08-04T03:07:59.672Z,91.10
2018-08-04T03:10:29.001Z,92.10
2018-08-04T03:12:57.428Z,92.40
2018-08-04T03:15:25.884Z,92.20
2018-08-04T03:17:54.368Z,91.90
2018-08-04T03:22:51.287Z,93.20
2018-08-04T03:25:19.732Z,93.70
2018-08-04T03:27:48.209Z,93.80
2018-08-04T03:30:16.686Z,93.70
2018-08-04T03:32:45.137Z,93.20
2018-08-04T03:37:41.721Z,94.40
2018-08-04T03:40:10.224Z,94.30
2018-08-04T03:42:38.718Z,94.40
2018-08-04T03:45:07.798Z,94.30
2018-08-04T03:47:36.440Z,94.90
2018-08-04T03:50:06.215Z,94.70
2018-08-04T03:52:34.764Z,94.40
2018-08-04T03:55:03.244Z,95.20
2018-08-04T03:57:31.675Z,95.80
2018-08-04T04:00:00.142Z,96.00
2018-08-04T04:04:56.782Z,95.00
2018-08-04T04:07:25.228Z,94.70
2018-08-04T04:09:54.004Z,94.40
2018-08-04T04:12:22.478Z,94.20
2018-08-04T04:14:50.924Z,94.70
2018-08-04T04:19:47.514Z,96.80
2018-08-04T04:22:15.964Z,97.20
2018-08-04T04:27:12.544Z,96.40
2018-08-04T04:29:41.021Z,95.80
2018-08-04T04:32:09.464Z,95.60
2018-08-04T04:34:37.937Z,97.10
2018-08-04T04:37:06.428Z,96.80
2018-08-04T04:39:34.846Z,97.10
2018-08-04T04:42:03.308Z,97.40
2018-08-04T04:44:31.729Z,96.80
2018-08-04T04:47:00.208Z,96.50
2018-08-04T04:49:28.667Z,96.30
2018-08-04T04:51:57.104Z,96.10
2018-08-04T04:56:53.704Z,97.10
2018-08-04T04:59:22.228Z,97.60
2018-08-04T05:01:50.711Z,98.40
2018-08-04T05:04:19.184Z,97.90
2018-08-04T05:06:47.664Z,98.00
2018-08-04T05:09:16.112Z,98.20
2018-08-04T05:11:44.613Z,99.30
2018-08-04T05:14:13.083Z,99.40
2018-08-04T05:16:41.540Z,99.40
2018-08-04T05:19:10.037Z,99.60
2018-08-04T05:21:38.577Z,99.70
2018-08-04T05:24:07.623Z,99.50
2018-08-04T05:26:36.078Z,99.20
2018-08-04T05:29:04.587Z,98.90
2018-08-04T05:31:33.121Z,99.70
2018-08-04T05:34:01.557Z,99.90
2018-08-04T05:36:30.027Z,99.90
2018-08-04T05:38:58.499Z,99.90
2018-08-04T05:41:26.975Z,99.90
2018-08-04T05:43:55.425Z,99.90
2018-08-04T05:46:25.072Z,99.90
2018-08-04T05:48:55.698Z,99.90
2018-08-04T05:51:24.140Z,99.90
2018-08-04T05:53:52.599Z,99.90
2018-08-04T05:56:21.045Z,99.90
2018-08-04T05:58:49.516Z,99.40
2018-08-04T06:01:17.984Z,99.20
2018-08-04T06:03:46.432Z,98.80
2018-08-04T06:06:14.925Z,98.40
2018-08-04T06:08:43.440Z,98.00
2018-08-04T06:11:11.909Z,97.60
2018-08-04T06:13:40.384Z,97.30
2018-08-04T06:16:09.173Z,97.20
2018-08-04T06:18:37.778Z,97.00
2018-08-04T06:21:06.324Z,97.60
2018-08-04T06:23:34.770Z,97.10
2018-08-04T06:26:03.313Z,96.60
2018-08-04T06:31:00.030Z,98.40
2018-08-04T06:33:28.487Z,98.50
2018-08-04T06:35:56.997Z,98.20
2018-08-04T06:38:25.460Z,96.70
2018-08-04T06:40:56.929Z,95.60
2018-08-04T06:43:25.481Z,95.30
2018-08-04T06:45:53.980Z,95.00
2018-08-04T06:48:22.491Z,94.50
2018-08-04T06:50:50.996Z,95.80
2018-08-04T06:53:19.499Z,95.70
2018-08-04T06:55:48.040Z,95.30
2018-08-04T06:58:16.517Z,96.00
2018-08-04T07:00:45.240Z,94.50
2018-08-04T07:03:13.716Z,93.50
2018-08-04T07:05:42.244Z,93.30
2018-08-04T07:08:10.804Z,92.90
2018-08-04T07:10:39.273Z,93.00
2018-08-04T07:13:08.060Z,92.60
2018-08-04T07:15:36.532Z,91.80
2018-08-04T07:18:05.032Z,91.80
2018-08-04T07:20:33.748Z,92.10
2018-08-04T07:23:02.253Z,91.60
2018-08-04T07:25:30.769Z,91.10
2018-08-04T07:27:59.248Z,91.10
2018-08-04T07:30:27.733Z,90.80
2018-08-04T07:32:56.309Z,90.50
2018-08-04T07:35:24.755Z,90.20
2018-08-04T07:37:53.269Z,90.00
2018-08-04T07:40:21.792Z,90.20
2018-08-04T07:42:50.249Z,89.00
2018-08-04T07:45:18.746Z,88.80
2018-08-04T07:47:47.208Z,90.00
2018-08-04T07:50:15.909Z,90.10
2018-08-04T07:52:44.698Z,89.80
2018-08-04T07:55:13.220Z,90.40
2018-08-04T07:57:41.996Z,89.70
2018-08-04T08:00:11.236Z,88.50
2018-08-04T08:02:39.718Z,89.70
2018-08-04T08:05:08.319Z,90.10
2018-08-04T08:07:37.404Z,90.20
2018-08-04T08:10:06.276Z,90.30
2018-08-04T08:12:35.930Z,90.60
2018-08-04T08:15:05.524Z,90.00
2018-08-04T08:20:02.138Z,88.50
2018-08-04T08:22:43.398Z,88.40
2018-08-04T08:25:12.301Z,88.40
2018-08-04T08:27:41.078Z,87.60
2018-08-04T08:30:12.290Z,86.90
2018-08-04T08:32:41.063Z,86.40
2018-08-04T08:35:10.166Z,86.70
2018-08-04T08:37:40.012Z,85.90
2018-08-04T08:40:09.271Z,85.60
2018-08-04T08:42:37.764Z,85.00
2018-08-04T08:45:08.139Z,84.30
2018-08-04T08:50:10.147Z,83.40
2018-08-04T08:52:38.634Z,83.00
2018-08-04T08:55:07.827Z,82.90
2018-08-04T08:57:36.436Z,82.80
2018-08-04T09:00:07.076Z,83.40
2018-08-04T09:02:35.552Z,80.90
2018-08-04T09:05:04.608Z,81.10
2018-08-04T09:07:33.128Z,81.00
2018-08-04T09:10:01.850Z,80.30
2018-08-04T09:12:30.377Z,79.60
2018-08-04T09:14:58.988Z,79.40
2018-08-04T09:17:27.469Z,78.60
2018-08-04T09:19:55.964Z,78.60
2018-08-04T09:22:24.865Z,77.00
2018-08-04T09:24:53.855Z,77.20
2018-08-04T09:27:22.365Z,76.10
2018-08-04T09:29:50.916Z,75.50
2018-08-04T09:32:19.376Z,74.70
2018-08-04T09:34:47.888Z,74.80
2018-08-04T09:39:44.602Z,75.10
2018-08-04T09:42:13.068Z,75.20
2018-08-04T09:44:41.569Z,75.10
2018-08-04T09:47:10.081Z,75.20
2018-08-04T09:49:38.572Z,74.70
2018-08-04T09:52:07.112Z,74.50
2018-08-04T09:54:35.580Z,73.50
2018-08-04T09:57:04.064Z,72.80
2018-08-04T09:59:32.562Z,72.80
2018-08-04T10:02:06.440Z,73.50
2018-08-04T10:04:34.909Z,72.30
2018-08-04T10:07:03.899Z,71.30
2018-08-04T10:09:32.372Z,71.40
2018-08-04T10:12:01.008Z,71.30
2018-08-04T10:14:29.796Z,69.90
2018-08-04T10:16:58.470Z,70.40
2018-08-04T10:19:26.961Z,69.30
2018-08-04T10:24:23.716Z,70.00
2018-08-04T10:26:52.180Z,69.70
2018-08-04T10:29:20.764Z,69.80
2018-08-04T10:31:49.275Z,69.40
2018-08-04T10:34:17.682Z,70.10
2018-08-04T10:36:46.143Z,69.80
2018-08-04T10:39:14.861Z,69.90
2018-08-04T10:41:43.376Z,69.60
2018-08-04T10:44:11.824Z,68.80
2018-08-04T10:46:40.528Z,68.80
2018-08-04T10:49:09.044Z,69.90
2018-08-04T10:51:37.524Z,69.70
2018-08-04T10:54:06.005Z,68.40
2018-08-04T10:56:34.508Z,68.30
2018-08-04T10:59:02.986Z,67.80
2018-08-04T11:01:31.478Z,67.40
2018-08-04T11:03:59.945Z,66.80
2018-08-04T11:06:28.400Z,67.20
2018-08-04T11:08:56.856Z,66.30
2018-08-04T11:11:25.359Z,66.60
2018-08-04T11:13:53.924Z,66.90
2018-08-04T11:16:22.388Z,65.20
2018-08-04T11:18:50.880Z,65.00
2018-08-04T11:23:47.488Z,64.40
2018-08-04T11:26:16.085Z,63.90
2018-08-04T11:28:44.614Z,63.80
2018-08-04T11:31:13.153Z,62.90
2018-08-04T11:33:41.580Z,62.60
2018-08-04T11:36:10.054Z,62.40
2018-08-04T11:38:38.485Z,62.00
2018-08-04T11:41:07.383Z,62.30
2018-08-04T11:43:35.845Z,61.30
2018-08-04T11:46:04.378Z,60.60
2018-08-04T11:48:32.861Z,60.00
2018-08-04T11:51:01.390Z,60.70
2018-08-04T11:53:29.857Z,61.50
2018-08-04T11:55:58.324Z,61.10
2018-08-04T11:58:26.941Z,59.90
2018-08-04T12:00:55.436Z,60.30
2018-08-04T12:03:23.941Z,59.20
2018-08-04T12:08:20.593Z,58.70
2018-08-04T12:10:49.305Z,59.10
2018-08-04T12:13:17.982Z,58.90
2018-08-04T12:15:46.535Z,57.60
2018-08-04T12:18:15.094Z,57.40
2018-08-04T12:20:43.570Z,58.50
2018-08-04T12:23:12.225Z,58.20
2018-08-04T12:25:40.789Z,58.10
2018-08-04T12:28:09.340Z,57.70
2018-08-04T12:30:37.809Z,58.40
2018-08-04T12:33:07.057Z,58.10
2018-08-04T12:35:35.641Z,57.70
2018-08-04T12:38:04.146Z,58.00
2018-08-04T12:40:32.606Z,58.00
2018-08-04T12:43:01.076Z,56.90
2018-08-04T12:45:29.600Z,56.80
2018-08-04T12:47:58.052Z,56.50
2018-08-04T12:50:26.603Z,56.00
2018-08-04T12:52:55.069Z,54.90
2018-08-04T12:55:23.565Z,54.70
2018-08-04T12:57:52.037Z,55.00
2018-08-04T13:00:20.682Z,54.90
2018-08-04T13:02:49.166Z,55.60
2018-08-04T13:05:17.658Z,54.90
2018-08-04T13:07:46.295Z,55.20
2018-08-04T13:10:15.635Z,55.50
2018-08-04T13:12:44.212Z,55.70
2018-08-04T13:15:12.739Z,56.00
2018-08-04T13:17:41.328Z,55.10
2018-08-04T13:20:09.801Z,55.10
2018-08-04T13:22:38.268Z,54.50
2018-08-04T13:25:06.768Z,54.50
2018-08-04T13:27:35.317Z,54.50
2018-08-04T13:30:03.921Z,53.60
2018-08-04T13:32:32.358Z,54.00
2018-08-04T13:35:00.805Z,53.80
2018-08-04T13:37:29.283Z,53.70
2018-08-04T13:39:57.799Z,54.00
2018-08-04T13:42:26.300Z,54.30
2018-08-04T13:44:54.766Z,54.00
2018-08-04T13:47:23.259Z,54.00
2018-08-04T13:49:51.741Z,55.10
2018-08-04T13:52:20.336Z,54.90
2018-08-04T13:54:48.772Z,54.70
2018-08-04T13:57:17.528Z,54.70
2018-08-04T13:59:46.008Z,54.50
2018-08-04T14:02:14.536Z,54.40
2018-08-04T14:04:42.995Z,54.60
2018-08-04T14:07:11.448Z,55.00
2018-08-04T14:09:40.012Z,55.10
2018-08-04T14:12:08.528Z,55.10
2018-08-04T14:14:37.014Z,54.80
2018-08-04T14:17:05.425Z,54.10
2018-08-04T14:19:34.327Z,54.80
2018-08-04T14:22:02.828Z,54.50
2018-08-04T14:24:31.838Z,54.40
2018-08-04T14:27:00.387Z,54.50
2018-08-04T14:29:28.858Z,54.00
2018-08-04T14:31:57.397Z,54.10
2018-08-04T14:34:25.868Z,54.20
2018-08-04T14:36:54.390Z,53.80
2018-08-04T14:39:22.880Z,54.00
2018-08-04T14:41:51.496Z,53.80
2018-08-04T14:44:19.988Z,54.40
2018-08-04T14:46:48.490Z,54.40
2018-08-04T14:49:16.997Z,54.40
2018-08-04T14:51:45.461Z,54.30
2018-08-04T14:54:13.908Z,55.00
2018-08-04T14:56:42.408Z,53.80
2018-08-04T14:59:10.852Z,54.00
2018-08-04T15:01:39.344Z,54.20
2018-08-04T15:04:07.837Z,54.40
2018-08-04T15:06:36.374Z,54.00
2018-08-04T15:09:07.586Z,54.50
2018-08-04T15:11:36.117Z,54.50
2018-08-04T15:14:04.621Z,53.90
2018-08-04T15:16:33.185Z,53.90
2018-08-04T15:19:01.716Z,54.60
2018-08-04T15:21:30.243Z,54.00
2018-08-04T15:23:58.669Z,54.90
2018-08-04T15:26:27.197Z,53.90
2018-08-04T15:28:55.704Z,54.10
2018-08-04T15:31:24.634Z,53.70
2018-08-04T15:33:53.276Z,53.60
2018-08-04T15:36:21.732Z,54.00
2018-08-04T15:38:50.278Z,54.00
2018-08-04T15:41:19.348Z,54.80
2018-08-04T15:43:47.801Z,54.90
2018-08-04T15:46:16.328Z,54.70
2018-08-04T15:48:44.788Z,54.60
2018-08-04T15:51:13.307Z,54.10
2018-08-04T15:53:41.744Z,55.00
2018-08-04T15:56:10.549Z,55.20
2018-08-04T15:58:39.056Z,55.00
2018-08-04T16:01:08.209Z,55.00
2018-08-04T16:06:04.904Z,55.20
2018-08-04T16:08:33.338Z,55.10
2018-08-04T16:11:01.824Z,54.90
2018-08-04T16:13:30.306Z,55.40
2018-08-04T16:15:58.846Z,56.10
2018-08-04T16:18:27.364Z,56.10
2018-08-04T16:20:55.816Z,56.10
2018-08-04T16:23:24.443Z,56.10
2018-08-04T16:25:52.948Z,55.50
2018-08-04T16:28:21.468Z,55.50
2018-08-04T16:30:49.986Z,55.80
2018-08-04T16:33:18.522Z,56.00
2018-08-04T16:35:47.013Z,56.50
2018-08-04T16:38:15.452Z,56.00
2018-08-04T16:40:44.105Z,56.30
2018-08-04T16:43:12.599Z,55.70
2018-08-04T16:45:41.178Z,56.10
2018-08-04T16:48:09.653Z,56.60
2018-08-04T16:50:38.136Z,56.90
2018-08-04T16:53:06.679Z,56.60
2018-08-04T16:55:35.182Z,56.90
2018-08-04T16:58:03.765Z,56.40
2018-08-04T17:00:32.257Z,57.10
2018-08-04T17:03:00.688Z,57.30
2018-08-04T17:05:29.207Z,57.30
2018-08-04T17:07:58.605Z,57.80
2018-08-04T17:10:27.112Z,57.30
2018-08-04T17:12:55.591Z,57.60
2018-08-04T17:15:24.040Z,57.20
2018-08-04T17:17:52.601Z,57.70
2018-08-04T17:20:21.673Z,58.20
2018-08-04T17:22:50.333Z,58.60
2018-08-04T17:25:18.811Z,59.00
2018-08-04T17:27:47.352Z,59.50
2018-08-04T17:30:16.145Z,59.70
2018-08-04T17:32:44.652Z,60.30
2018-08-04T17:35:13.192Z,60.70
2018-08-04T17:37:42.920Z,61.10
2018-08-04T17:40:11.868Z,61.40
2018-08-04T17:42:41.220Z,61.90
2018-08-04T17:45:09.752Z,61.90
2018-08-04T17:47:38.280Z,62.30
2018-08-04T17:50:06.856Z,62.60
2018-08-04T17:52:35.524Z,62.60
2018-08-04T17:55:04.076Z,62.80
2018-08-04T17:57:32.581Z,63.10
2018-08-04T18:00:01.070Z,64.90
2018-08-04T18:04:57.949Z,69.90
2018-08-04T18:07:26.484Z,71.10
2018-08-04T18:09:54.937Z,71.70
2018-08-04T18:12:23.428Z,72.50
2018-08-04T18:14:51.928Z,73.20
2018-08-04T18:17:20.522Z,73.80
2018-08-04T18:19:49.052Z,74.10
2018-08-04T18:22:17.879Z,74.30
2018-08-04T18:24:46.410Z,74.60
2018-08-04T18:27:14.972Z,75.10
2018-08-04T18:29:43.530Z,75.80
2018-08-04T18:32:12.096Z,75.70
2018-08-04T18:37:08.736Z,76.40
2018-08-04T18:39:37.198Z,77.10
2018-08-04T18:42:05.728Z,77.70
2018-08-04T18:44:34.211Z,78.30
2018-08-04T18:47:02.703Z,78.90
2018-08-04T18:49:32.507Z,79.10
2018-08-04T18:52:01.146Z,79.60
2018-08-04T18:54:29.803Z,80.10
2018-08-04T18:56:58.372Z,80.80
2018-08-04T18:59:26.939Z,81.90
2018-08-04T19:01:55.448Z,82.70
2018-08-04T19:04:23.879Z,83.50
2018-08-04T19:06:52.394Z,84.20
2018-08-04T19:09:20.861Z,85.50
2018-08-04T19:11:49.377Z,85.50
2018-08-04T19:14:17.840Z,86.30
2018-08-04T19:16:46.333Z,87.40
2018-08-04T19:19:14.807Z,88.00
2018-08-04T19:21:43.260Z,88.90
2018-08-04T19:24:11.843Z,89.60
2018-08-04T19:26:40.420Z,90.10
2018-08-04T19:29:09.417Z,90.30
2018-08-04T19:31:37.928Z,90.60
2018-08-04T19:34:06.479Z,90.90
2018-08-04T19:36:35.012Z,91.30
2018-08-04T19:39:03.720Z,91.90
2018-08-04T19:44:00.486Z,92.90
2018-08-04T19:46:28.984Z,93.40
